Time;durP1;ratioP1;P1;durP2;ratioP2;P2;SDS_P1;SDS_P2;PMS_P1;PMS_P2;Temp;Humidity;BMP_temperature;BMP_pressure;BME280_temperature;BME280_humidity;BME280_pressure;Samples;Min_cycle;Max_cycle;Signal;HPM_P1;HPM_P2
2022/06/02 00:00:16;;;;;;;28.92;14.38;;;11.00;99.90;;;;;;5029083;28;20052;-87
2022/06/02 00:02:48;;;;;;;26.73;15.43;;;11.10;99.90;;;;;;5038891;28;20089;-87
2022/06/02 00:05:50;;;;;;;27.42;15.90;;;11.00;99.90;;;;;;5039531;28;20064;-88
2022/06/02 00:08:25;;;;;;;27.73;15.93;;;10.80;99.90;;;;;;5035079;28;20033;-88
2022/06/02 00:10:59;;;;;;;28.85;16.08;;;10.80;99.90;;;;;;5030947;28;20064;-88
2022/06/02 00:14:08;;;;;;;27.27;15.45;;;10.70;99.90;;;;;;5036112;28;20029;-88
2022/06/02 00:17:03;;;;;;;26.15;14.80;;;10.60;99.90;;;;;;5029738;28;20076;-87
2022/06/02 00:19:28;;;;;;;21.60;13.60;;;10.60;99.90;;;;;;5036533;28;20542;-88
2022/06/02 00:22:22;;;;;;;29.85;15.35;;;10.60;99.90;;;;;;5035147;28;20041;-87
2022/06/02 00:25:18;;;;;;;28.65;15.02;;;10.50;99.90;;;;;;5031869;28;20029;-88
2022/06/02 00:28:11;;;;;;;29.52;14.98;;;10.50;99.90;;;;;;5027539;28;20029;-87
2022/06/02 00:31:12;;;;;;;25.67;14.30;;;10.50;99.90;;;;;;5039631;28;20067;-87
2022/06/02 00:33:55;;;;;;;;;;;10.40;99.90;;;;;;5037568;28;20052;-88
2022/06/02 00:36:32;;;;;;;22.30;14.25;;;10.40;99.90;;;;;;5042309;28;19983;-88
2022/06/02 00:38:59;;;;;;;28.63;14.38;;;10.40;99.90;;;;;;5039793;28;20083;-89
2022/06/02 00:41:53;;;;;;;29.38;16.10;;;10.30;99.90;;;;;;5037259;28;20061;-88
2022/06/02 00:44:46;;;;;;;32.13;15.38;;;10.30;99.90;;;;;;5035072;28;20032;-87
2022/06/02 00:47:47;;;;;;;37.03;17.92;;;10.20;99.90;;;;;;5033852;28;20031;-88
2022/06/02 00:50:43;;;;;;;40.33;19.10;;;10.20;99.90;;;;;;5031045;28;20025;-88
2022/06/02 00:53:23;;;;;;;44.92;21.10;;;10.30;99.90;;;;;;5024066;28;20144;-88
2022/06/02 00:59:08;;;;;;;47.40;22.25;;;10.40;99.90;;;;;;5038218;28;20064;-92
2022/06/02 01:01:36;;;;;;;43.47;20.73;;;10.50;99.90;;;;;;5053954;28;20037;-87
2022/06/02 01:04:05;;;;;;;42.78;20.15;;;10.50;99.90;;;;;;5039661;28;20465;-87
2022/06/02 01:06:51;;;;;;;34.17;18.63;;;10.50;99.90;;;;;;5033460;28;20025;-91
2022/06/02 01:09:40;;;;;;;40.67;19.05;;;10.60;99.90;;;;;;5039150;28;20032;-88
2022/06/02 01:12:13;;;;;;;35.53;19.60;;;10.60;99.90;;;;;;5032479;28;20025;-92
2022/06/02 01:15:10;;;;;;;38.92;17.45;;;10.70;99.90;;;;;;5030772;28;20093;-88
2022/06/02 01:18:10;;;;;;;35.00;17.48;;;10.70;99.90;;;;;;5027459;28;20594;-90
2022/06/02 01:20:54;;;;;;;31.38;15.50;;;10.60;99.90;;;;;;5031673;28;20022;-88
2022/06/02 01:23:38;;;;;;;32.95;18.90;;;10.70;99.90;;;;;;5031384;28;20787;-87
2022/06/02 01:26:25;;;;;;;33.03;18.15;;;10.60;99.90;;;;;;5028775;28;20131;-88
2022/06/02 01:29:15;;;;;;;38.20;19.45;;;10.70;99.90;;;;;;5043808;28;20718;-88
2022/06/02 01:32:06;;;;;;;31.23;17.38;;;10.60;99.90;;;;;;5038279;28;20562;-88
2022/06/02 01:35:08;;;;;;;34.30;19.13;;;10.60;99.90;;;;;;5039466;28;20021;-88
2022/06/02 01:37:39;;;;;;;39.58;21.63;;;10.50;99.90;;;;;;5035003;28;20033;-87
2022/06/02 01:40:25;;;;;;;32.13;17.73;;;10.40;99.90;;;;;;5033030;28;20020;-88
2022/06/02 01:42:59;;;;;;;36.97;18.65;;;10.40;99.90;;;;;;5009682;28;20482;-90
2022/06/02 01:45:53;;;;;;;34.53;17.50;;;10.30;99.90;;;;;;5030271;28;20032;-87
2022/06/02 01:48:31;;;;;;;29.05;16.95;;;10.30;99.90;;;;;;5067838;28;20069;-90
2022/06/02 01:51:15;;;;;;;42.03;17.98;;;10.30;99.90;;;;;;5033386;28;20029;-88
2022/06/02 01:54:08;;;;;;;34.53;18.45;;;10.10;99.90;;;;;;5029061;28;20489;-88
2022/06/02 01:56:52;;;;;;;30.67;15.60;;;10.20;99.90;;;;;;5035764;28;20041;-88
2022/06/02 01:59:23;;;;;;;35.95;17.83;;;10.20;99.90;;;;;;5044399;28;20104;-89
2022/06/02 02:02:01;;;;;;;32.58;17.35;;;10.20;99.90;;;;;;5043898;28;20049;-88
2022/06/02 02:04:51;;;;;;;30.23;16.40;;;10.10;99.90;;;;;;5041495;28;20032;-88
2022/06/02 02:07:53;;;;;;;28.65;15.73;;;10.00;99.90;;;;;;5041225;28;20085;-87
2022/06/02 02:10:44;;;;;;;37.95;16.95;;;10.00;99.90;;;;;;5035303;28;20447;-87
2022/06/02 02:13:28;;;;;;;40.72;17.52;;;9.90;99.90;;;;;;5037491;28;20029;-88
2022/06/02 02:16:23;;;;;;;30.48;16.92;;;9.90;99.90;;;;;;5026631;28;20037;-88
2022/06/02 02:19:07;;;;;;;33.53;17.15;;;9.90;99.90;;;;;;5031703;28;20034;-88
2022/06/02 02:21:57;;;;;;;32.72;16.27;;;9.90;99.90;;;;;;5041132;28;20029;-88
2022/06/02 02:25:00;;;;;;;32.25;16.98;;;10.00;99.90;;;;;;5041508;28;20021;-88
2022/06/02 02:28:02;;;;;;;34.30;16.25;;;9.90;99.90;;;;;;5036256;28;20025;-88
2022/06/02 02:30:24;;;;;;;25.52;13.68;;;9.90;99.90;;;;;;5042898;28;20115;-88
2022/06/02 02:33:16;;;;;;;28.13;14.10;;;9.90;99.90;;;;;;5044939;28;20110;-88
2022/06/02 02:36:10;;;;;;;26.60;14.48;;;9.80;99.90;;;;;;5031162;28;20033;-89
2022/06/02 02:38:44;;;;;;;22.02;13.38;;;9.80;99.90;;;;;;5040471;28;20021;-88
2022/06/02 02:41:16;;;;;;;22.50;13.30;;;9.80;99.90;;;;;;5029917;28;20487;-88
2022/06/02 02:43:57;;;;;;;32.17;14.43;;;10.00;99.90;;;;;;5040444;28;20060;-88
2022/06/02 02:46:42;;;;;;;29.90;12.95;;;10.10;99.90;;;;;;5034365;28;20144;-88
2022/06/02 02:49:08;;;;;;;24.13;13.05;;;10.20;99.90;;;;;;5030474;28;20572;-88
2022/06/02 02:51:58;;;;;;;25.00;13.82;;;10.30;99.90;;;;;;5034443;28;20029;-88
2022/06/02 02:54:45;;;;;;;25.35;13.55;;;10.30;99.90;;;;;;5031477;28;20051;-90
2022/06/02 02:57:27;;;;;;;26.60;13.35;;;10.40;99.90;;;;;;5038415;28;20063;-88
2022/06/02 03:00:05;;;;;;;23.38;13.15;;;10.40;99.90;;;;;;5042642;28;20053;-90
2022/06/02 03:02:43;;;;;;;29.20;13.68;;;10.40;99.90;;;;;;5046397;28;20594;-88
2022/06/02 03:05:31;;;;;;;19.92;13.13;;;10.30;99.90;;;;;;5030386;28;20025;-89
2022/06/02 03:08:19;;;;;;;23.95;12.95;;;10.20;99.90;;;;;;5008719;28;20041;-88
2022/06/02 03:10:51;;;;;;;24.65;13.20;;;10.20;99.90;;;;;;5036362;28;20037;-89
2022/06/02 03:13:39;;;;;;;27.73;13.77;;;10.20;99.90;;;;;;5036610;28;20444;-89
2022/06/02 03:16:11;;;;;;;24.65;12.90;;;10.20;99.90;;;;;;5038956;28;20025;-89
2022/06/02 03:19:09;;;;;;;30.95;13.48;;;10.20;99.90;;;;;;5026128;28;20037;-89
2022/06/02 03:21:54;;;;;;;29.15;13.68;;;10.10;99.90;;;;;;5038811;28;20504;-89
2022/06/02 03:24:44;;;;;;;22.45;13.25;;;10.00;99.90;;;;;;5029839;28;20061;-89
2022/06/02 03:27:24;;;;;;;25.88;14.68;;;10.00;99.90;;;;;;5035284;28;20382;-88
2022/06/02 03:30:02;;;;;;;24.05;12.77;;;10.10;99.90;;;;;;5048025;28;20060;-89
2022/06/02 03:32:36;;;;;;;22.77;13.95;;;10.10;99.90;;;;;;5039159;28;20084;-89
2022/06/02 03:35:07;;;;;;;21.95;13.60;;;9.90;99.90;;;;;;5037745;28;20029;-87
2022/06/02 03:37:40;;;;;;;21.98;12.90;;;10.10;99.90;;;;;;5036836;28;20029;-89
2022/06/02 03:40:30;;;;;;;22.83;13.15;;;10.10;99.90;;;;;;5028717;28;20021;-88
2022/06/02 03:43:04;;;;;;;25.75;14.10;;;10.10;99.90;;;;;;5024013;28;20033;-89
2022/06/02 03:45:53;;;;;;;20.65;13.27;;;10.10;99.90;;;;;;5034110;28;20097;-88
2022/06/02 03:48:56;;;;;;;27.40;14.23;;;10.10;99.90;;;;;;5029483;28;20380;-89
2022/06/02 03:51:29;;;;;;;30.67;16.17;;;10.20;99.90;;;;;;5031591;28;20396;-89
2022/06/02 03:54:29;;;;;;;29.48;17.05;;;10.10;99.90;;;;;;5031410;28;20516;-89
2022/06/02 03:57:03;;;;;;;32.38;16.83;;;10.20;99.90;;;;;;5040662;28;20036;-89
2022/06/02 03:59:50;;;;;;;31.88;17.27;;;10.20;99.90;;;;;;5034861;28;20108;-88
2022/06/02 04:02:26;;;;;;;51.83;19.42;;;10.20;99.90;;;;;;5041657;28;20124;-89
2022/06/02 04:05:08;;;;;;;36.03;18.65;;;10.10;99.90;;;;;;5040204;28;20030;-89
2022/06/02 04:07:39;;;;;;;38.20;18.38;;;10.20;99.90;;;;;;5037483;28;20048;-89
2022/06/02 04:10:27;;;;;;;34.58;18.75;;;10.30;99.90;;;;;;5036285;28;20066;-91
2022/06/02 04:16:27;;;;;;;31.63;18.85;;;10.20;99.90;;;;;;5030410;28;20051;-89
2022/06/02 04:22:24;;;;;;;32.05;18.20;;;10.20;99.90;;;;;;5017620;28;20095;-88
2022/06/02 04:25:05;;;;;;;47.00;19.20;;;10.00;99.90;;;;;;5041178;28;20029;-89
2022/06/02 04:28:08;;;;;;;34.80;17.25;;;10.00;99.90;;;;;;5039592;28;20043;-88
2022/06/02 04:30:57;;;;;;;27.55;17.25;;;10.10;99.90;;;;;;5037164;28;20028;-88
2022/06/02 04:33:38;;;;;;;31.38;17.40;;;10.20;99.90;;;;;;5037088;28;20113;-87
2022/06/02 04:36:17;;;;;;;;;;;10.30;99.90;;;;;;5041096;28;20034;-88
2022/06/02 04:39:07;;;;;;;38.22;20.08;;;10.40;99.90;;;;;;5039962;28;19923;-90
2022/06/02 04:42:09;;;;;;;33.55;17.42;;;10.40;99.90;;;;;;5042414;28;20094;-88
2022/06/02 04:44:51;;;;;;;39.97;20.23;;;10.60;99.90;;;;;;5030771;28;20100;-88
2022/06/02 04:47:39;;;;;;;36.25;18.85;;;10.60;99.90;;;;;;5031812;28;20103;-89
2022/06/02 04:50:29;;;;;;;34.35;17.98;;;10.60;99.90;;;;;;5031304;28;20575;-90
2022/06/02 04:53:22;;;;;;;31.17;18.42;;;10.50;99.90;;;;;;5018557;28;20045;-91
2022/06/02 04:56:03;;;;;;;30.58;16.65;;;10.50;99.90;;;;;;5040926;28;20021;-95
2022/06/02 04:58:50;;;;;;;29.30;15.73;;;10.60;99.90;;;;;;5035551;28;20042;-95
2022/06/02 05:01:43;;;;;;;31.27;14.35;;;10.80;99.90;;;;;;5034488;28;20061;-96
2022/06/02 05:04:27;;;;;;;28.90;15.77;;;10.80;99.90;;;;;;5048980;28;20049;-96
2022/06/02 05:07:08;;;;;;;28.65;15.07;;;10.80;99.90;;;;;;5063358;28;20311;-96
2022/06/02 05:09:36;;;;;;;29.08;14.52;;;10.80;99.90;;;;;;5040557;28;20411;-96
2022/06/02 05:12:20;;;;;;;28.20;15.75;;;10.80;99.90;;;;;;5042991;28;20033;-96
2022/06/02 05:15:12;;;;;;;36.55;17.55;;;10.70;99.90;;;;;;5042653;28;20100;-96
2022/06/02 05:18:06;;;;;;;29.45;17.20;;;10.60;99.90;;;;;;5042450;28;20056;-96
2022/06/02 05:20:46;;;;;;;36.08;18.80;;;10.80;99.90;;;;;;5042757;28;20053;-95
2022/06/02 05:23:30;;;;;;;;;;;11.00;99.90;;;;;;5036734;28;20030;-96
2022/06/02 05:26:08;;;;;;;29.60;16.33;;;11.10;99.90;;;;;;5082322;28;19978;-88
2022/06/02 05:28:46;;;;;;;24.38;14.77;;;11.20;99.90;;;;;;5037828;28;20036;-78
2022/06/02 05:31:45;;;;;;;27.88;16.08;;;11.30;99.90;;;;;;5031225;28;20040;-75
2022/06/02 05:34:29;;;;;;;30.48;16.27;;;11.30;99.90;;;;;;5041756;28;20671;-76
2022/06/02 05:37:23;;;;;;;27.85;15.63;;;11.40;99.90;;;;;;5072858;28;20087;-76
2022/06/02 05:40:04;;;;;;;27.00;15.85;;;11.50;99.90;;;;;;5032649;28;20041;-75
2022/06/02 05:42:57;;;;;;;31.55;17.17;;;11.70;99.90;;;;;;5039262;28;20490;-76
2022/06/02 05:45:35;;;;;;;22.92;14.02;;;11.70;99.90;;;;;;5036132;28;20113;-75
2022/06/02 05:48:05;;;;;;;25.75;13.05;;;11.70;99.90;;;;;;5035525;28;20080;-75
2022/06/02 05:50:48;;;;;;;23.95;14.07;;;11.80;99.90;;;;;;5034274;28;20022;-75
2022/06/02 05:53:31;;;;;;;21.02;12.45;;;11.80;99.90;;;;;;5032657;28;20420;-77
2022/06/02 05:56:26;;;;;;;23.30;13.07;;;12.00;99.90;;;;;;5037146;28;20025;-81
2022/06/02 05:59:10;;;;;;;21.27;12.32;;;12.50;99.90;;;;;;5038383;28;20103;-81
2022/06/02 06:02:01;;;;;;;20.15;11.77;;;12.60;99.90;;;;;;5040319;28;20492;-82
2022/06/02 06:04:30;;;;;;;19.00;13.07;;;12.90;99.90;;;;;;5037955;28;20069;-81
2022/06/02 06:07:02;;;;;;;15.77;10.75;;;12.70;99.90;;;;;;5037305;28;20026;-81
2022/06/02 06:09:46;;;;;;;18.13;10.05;;;12.60;99.90;;;;;;5035140;28;20036;-81
2022/06/02 06:12:50;;;;;;;20.52;11.38;;;12.50;99.90;;;;;;5050069;28;20029;-81
2022/06/02 06:15:22;;;;;;;19.10;11.52;;;12.40;99.90;;;;;;5014159;28;20196;-81
2022/06/02 06:17:51;;;;;;;18.70;11.43;;;12.60;99.90;;;;;;5027912;28;20507;-81
2022/06/02 06:20:35;;;;;;;16.58;10.93;;;12.60;99.90;;;;;;5027799;28;20030;-82
2022/06/02 06:23:21;;;;;;;22.25;12.02;;;12.70;99.90;;;;;;5032047;28;20045;-81
2022/06/02 06:25:50;;;;;;;19.90;11.20;;;12.90;99.90;;;;;;5033798;28;20032;-81
2022/06/02 06:28:20;;;;;;;21.65;12.43;;;13.10;99.90;;;;;;5042371;28;20022;-81
2022/06/02 06:30:55;;;;;;;17.83;11.30;;;13.00;99.90;;;;;;5041829;28;20037;-81
2022/06/02 06:33:48;;;;;;;20.25;12.93;;;13.00;99.90;;;;;;5036376;28;20025;-81
2022/06/02 06:36:35;;;;;;;20.52;11.00;;;13.20;99.90;;;;;;5038503;28;20028;-82
2022/06/02 06:39:09;;;;;;;17.40;10.48;;;13.40;99.90;;;;;;5029914;28;20077;-82
2022/06/02 06:41:41;;;;;;;17.77;9.88;;;13.10;99.90;;;;;;5031718;28;20452;-82
2022/06/02 06:44:26;;;;;;;14.32;9.27;;;13.10;99.90;;;;;;5031686;28;20079;-82
2022/06/02 06:47:29;;;;;;;15.63;9.48;;;13.40;99.90;;;;;;5031973;28;20545;-82
2022/06/02 06:50:12;;;;;;;18.88;9.00;;;13.40;99.90;;;;;;5018019;28;20018;-81
2022/06/02 06:52:57;;;;;;;11.73;9.32;;;13.50;99.90;;;;;;5017982;28;20401;-81
2022/06/02 06:55:41;;;;;;;12.73;8.93;;;13.70;99.90;;;;;;5023369;28;20034;-81
2022/06/02 06:58:41;;;;;;;13.18;8.85;;;13.80;99.90;;;;;;5046006;28;20028;-81
2022/06/02 07:01:25;;;;;;;14.63;9.50;;;13.80;99.90;;;;;;5043767;28;20124;-81
2022/06/02 07:04:06;;;;;;;14.93;8.40;;;13.80;99.90;;;;;;5039735;28;20090;-82
2022/06/02 07:06:48;;;;;;;14.52;8.80;;;14.00;99.90;;;;;;5035334;28;20064;-80
2022/06/02 07:09:23;;;;;;;13.57;9.52;;;14.30;99.90;;;;;;5031459;28;20099;-81
2022/06/02 07:15:47;;;;;;;15.77;7.85;;;14.40;99.70;;;;;;5035203;28;20033;-82
2022/06/02 07:18:24;;;;;;;20.27;9.43;;;14.50;99.90;;;;;;5030552;28;20110;-81
2022/06/02 07:21:02;;;;;;;10.43;7.68;;;14.30;99.10;;;;;;5027477;28;20029;-80
2022/06/02 07:23:40;;;;;;;12.65;8.48;;;14.40;97.50;;;;;;5024516;28;20029;-81
2022/06/02 07:26:26;;;;;;;12.10;7.63;;;14.50;97.60;;;;;;5033349;28;20031;-80
2022/06/02 07:29:32;;;;;;;11.60;8.15;;;14.70;99.90;;;;;;5044084;28;20052;-83
2022/06/02 07:32:46;;;;;;;10.88;8.45;;;14.80;97.60;;;;;;5036807;28;20040;-81
2022/06/02 07:35:27;;;;;;;14.02;8.32;;;15.10;99.40;;;;;;4976481;28;20033;-81
2022/06/02 07:38:12;;;;;;;;;;;15.10;97.90;;;;;;5053355;28;20259;-81
2022/06/02 07:40:54;;;;;;;16.15;7.88;;;15.40;96.10;;;;;;5036095;28;19913;-82
2022/06/02 07:43:35;;;;;;;16.77;8.23;;;15.40;95.50;;;;;;5033289;28;20029;-81
2022/06/02 07:46:35;;;;;;;11.48;7.40;;;15.40;98.50;;;;;;5034959;28;20492;-81
2022/06/02 07:49:23;;;;;;;10.35;8.18;;;15.30;97.00;;;;;;5031823;28;20041;-81
2022/06/02 07:51:57;;;;;;;11.25;7.55;;;15.60;96.80;;;;;;5032460;28;20080;-82
2022/06/02 07:54:50;;;;;;;9.68;7.10;;;15.90;97.30;;;;;;5023631;28;20052;-81
2022/06/02 07:57:22;;;;;;;13.40;9.00;;;16.00;92.10;;;;;;5039737;28;20403;-82
2022/06/02 08:00:14;;;;;;;11.05;7.60;;;16.10;95.40;;;;;;5038710;28;20056;-81
2022/06/02 08:03:13;;;;;;;10.93;7.55;;;16.10;97.40;;;;;;5036881;28;20518;-81
2022/06/02 08:06:12;;;;;;;16.55;7.75;;;16.20;91.60;;;;;;5035704;28;20400;-81
2022/06/02 08:08:51;;;;;;;12.48;7.88;;;16.60;96.30;;;;;;5052594;28;20082;-81
2022/06/02 08:11:28;;;;;;;9.60;6.90;;;16.50;88.10;;;;;;5030177;28;20033;-81
2022/06/02 08:14:25;;;;;;;11.00;7.07;;;16.50;91.10;;;;;;5032901;28;20432;-82
2022/06/02 08:16:54;;;;;;;11.15;7.50;;;16.80;90.90;;;;;;5028121;28;20029;-83
2022/06/02 08:19:29;;;;;;;10.25;7.00;;;17.00;86.60;;;;;;5027921;28;20029;-81
2022/06/02 08:21:59;;;;;;;18.48;7.10;;;17.00;82.60;;;;;;5027352;28;20395;-82
2022/06/02 08:24:57;;;;;;;9.95;6.90;;;17.10;90.40;;;;;;5027553;28;20060;-81
2022/06/02 08:27:34;;;;;;;9.75;6.60;;;17.10;87.90;;;;;;5039182;28;20021;-82
2022/06/02 08:30:09;;;;;;;11.98;7.85;;;17.00;83.40;;;;;;5038320;28;20032;-82
2022/06/02 08:33:03;;;;;;;10.82;7.97;;;17.30;87.90;;;;;;5040828;28;20051;-81
2022/06/02 08:35:38;;;;;;;11.88;7.15;;;17.50;83.80;;;;;;5039998;28;20120;-81
2022/06/02 08:38:12;;;;;;;11.55;7.47;;;17.40;86.30;;;;;;5036762;28;20037;-81
2022/06/02 08:41:28;;;;;;;11.70;7.88;;;17.60;81.60;;;;;;5028534;28;20029;-81
2022/06/02 08:44:24;;;;;;;10.02;7.32;;;18.00;89.50;;;;;;5029923;28;20030;-82
2022/06/02 08:47:11;;;;;;;11.20;7.43;;;18.00;82.70;;;;;;5028922;28;20090;-82
2022/06/02 08:50:00;;;;;;;13.90;8.10;;;18.20;77.40;;;;;;5031935;28;20040;-82
2022/06/02 08:52:48;;;;;;;9.85;7.43;;;18.20;80.30;;;;;;5011406;28;20038;-82
2022/06/02 08:55:32;;;;;;;10.88;7.93;;;18.60;79.50;;;;;;5044224;28;20130;-81
2022/06/02 08:58:35;;;;;;;10.98;8.10;;;18.60;75.80;;;;;;5047123;28;20087;-81
2022/06/02 09:01:42;;;;;;;10.05;7.88;;;18.60;79.90;;;;;;5041031;28;20492;-82
2022/06/02 09:04:50;;;;;;;12.52;8.20;;;18.50;77.50;;;;;;4987531;28;20030;-81
2022/06/02 09:07:34;;;;;;;12.00;7.88;;;18.10;74.20;;;;;;5001582;28;20066;-81
2022/06/02 09:10:05;;;;;;;10.82;7.45;;;18.50;73.60;;;;;;5024818;28;20042;-81
2022/06/02 09:12:52;;;;;;;11.80;7.32;;;18.60;74.10;;;;;;5036572;28;20033;-81
2022/06/02 09:15:37;;;;;;;14.32;8.00;;;18.90;71.00;;;;;;5035172;28;20029;-82
2022/06/02 09:18:14;;;;;;;9.35;7.60;;;18.70;75.00;;;;;;5032559;28;20037;-81
2022/06/02 09:20:40;;;;;;;18.95;6.72;;;19.20;82.80;;;;;;5028268;28;20088;-81
2022/06/02 09:23:15;;;;;;;9.48;6.45;;;19.40;73.80;;;;;;5030331;28;20028;-81
2022/06/02 09:25:46;;;;;;;12.10;6.93;;;20.00;68.60;;;;;;5044200;28;20048;-81
2022/06/02 09:28:24;;;;;;;10.38;6.78;;;20.00;68.40;;;;;;5044644;28;20571;-81
2022/06/02 09:31:04;;;;;;;10.18;6.28;;;19.60;68.40;;;;;;5035178;28;20029;-81
2022/06/02 09:33:51;;;;;;;7.03;6.32;;;19.60;72.20;;;;;;5073146;28;20093;-81
2022/06/02 09:36:54;;;;;;;11.25;6.35;;;19.60;69.40;;;;;;5039930;28;20174;-81
2022/06/02 09:39:39;;;;;;;11.63;7.18;;;19.90;69.00;;;;;;5033760;28;20025;-81
2022/06/02 09:42:17;;;;;;;7.35;6.43;;;20.00;64.50;;;;;;5036152;28;20488;-80
2022/06/02 09:45:02;;;;;;;8.27;6.43;;;20.30;61.60;;;;;;5051797;28;20028;-81
2022/06/02 09:47:50;;;;;;;11.35;6.03;;;20.40;61.70;;;;;;5028676;28;20049;-81
2022/06/02 09:50:34;;;;;;;10.77;6.93;;;20.80;59.40;;;;;;5044198;28;20396;-82
2022/06/02 09:53:53;;;;;;;8.77;7.05;;;20.30;60.00;;;;;;5059736;28;20029;-81
2022/06/02 09:56:48;;;;;;;7.43;6.60;;;20.40;61.50;;;;;;4991092;28;20077;-81
2022/06/02 09:59:29;;;;;;;8.27;5.93;;;20.70;62.70;;;;;;5043566;28;20068;-81
2022/06/02 10:02:16;;;;;;;9.75;6.50;;;21.20;58.80;;;;;;5042447;28;20044;-81
2022/06/02 10:04:42;;;;;;;8.88;6.57;;;20.90;60.00;;;;;;5034075;28;20030;-81
2022/06/02 10:07:32;;;;;;;9.57;5.85;;;20.70;60.70;;;;;;5038193;28;20025;-82
2022/06/02 10:10:28;;;;;;;9.73;6.60;;;21.00;61.50;;;;;;5035941;28;20064;-81
2022/06/02 10:13:17;;;;;;;8.77;6.80;;;21.00;60.30;;;;;;5035218;28;20157;-81
2022/06/02 10:16:13;;;;;;;9.40;6.55;;;20.90;58.90;;;;;;4994009;28;20037;-81
2022/06/02 10:19:15;;;;;;;10.50;6.35;;;20.90;58.20;;;;;;5030088;28;20108;-85
2022/06/02 10:21:44;;;;;;;8.05;5.95;;;21.50;58.80;;;;;;5033652;28;20053;-77
2022/06/02 10:24:47;;;;;;;8.93;5.63;;;21.50;56.20;;;;;;5033938;28;20056;-78
2022/06/02 10:27:26;;;;;;;7.00;5.82;;;21.50;58.80;;;;;;5040373;28;20017;-77
2022/06/02 10:29:55;;;;;;;8.52;6.00;;;21.90;56.20;;;;;;5039475;28;20025;-78
2022/06/02 10:32:56;;;;;;;11.27;5.75;;;21.70;54.40;;;;;;5040937;28;20068;-77
2022/06/02 10:35:59;;;;;;;14.93;5.80;;;21.90;58.80;;;;;;5042955;28;20040;-78
2022/06/02 10:39:10;;;;;;;7.13;5.20;;;22.20;55.70;;;;;;5033522;28;20087;-77
2022/06/02 10:42:23;;;;;;;6.75;5.50;;;22.30;57.80;;;;;;5022235;28;20084;-77
2022/06/02 10:44:51;;;;;;;10.00;5.30;;;22.70;55.70;;;;;;5049668;28;20036;-77
2022/06/02 10:48:08;;;;;;;7.40;5.15;;;22.90;53.10;;;;;;5059901;28;20097;-78
2022/06/02 10:51:14;;;;;;;7.20;5.00;;;23.00;55.00;;;;;;5036819;28;20048;-83
2022/06/02 10:54:17;;;;;;;10.93;6.00;;;23.00;52.20;;;;;;5045030;28;20080;-80
2022/06/02 10:57:07;;;;;;;10.50;5.65;;;23.50;51.80;;;;;;5037833;28;20060;-81
2022/06/02 11:00:13;;;;;;;6.82;5.45;;;23.50;52.80;;;;;;5045669;28;20037;-81
2022/06/02 11:03:31;;;;;;;7.05;4.40;;;23.40;54.70;;;;;;5054120;28;20057;-86
2022/06/02 11:06:15;;;;;;;8.00;5.72;;;23.30;50.60;;;;;;5059664;28;20028;-82
2022/06/02 11:09:06;;;;;;;6.82;5.05;;;23.60;52.40;;;;;;5062120;28;20013;-82
2022/06/02 11:11:46;;;;;;;6.30;5.25;;;24.20;47.90;;;;;;5082905;28;20021;-83
2022/06/02 11:15:00;;;;;;;8.02;4.95;;;24.70;47.30;;;;;;5053765;28;20021;-81
2022/06/02 11:17:57;;;;;;;8.95;4.97;;;25.10;45.00;;;;;;5024082;28;20030;-80
2022/06/02 11:20:44;;;;;;;5.68;4.68;;;25.50;46.90;;;;;;5032332;28;20029;-81
2022/06/02 11:23:36;;;;;;;6.50;4.78;;;25.10;45.60;;;;;;5048685;28;20028;-81
2022/06/02 11:26:28;;;;;;;5.40;4.60;;;25.90;45.10;;;;;;5064559;28;20080;-82
2022/06/02 11:29:03;;;;;;;6.07;4.28;;;25.80;44.20;;;;;;5063594;28;20052;-81
2022/06/02 11:31:56;;;;;;;7.03;4.15;;;25.50;43.50;;;;;;5058915;28;20025;-82
2022/06/02 11:34:43;;;;;;;4.88;4.28;;;25.70;44.80;;;;;;5061089;28;20036;-80
2022/06/02 11:37:40;;;;;;;5.65;4.20;;;25.50;46.30;;;;;;5054842;28;20060;-81
2022/06/02 11:40:51;;;;;;;6.88;4.50;;;26.20;47.30;;;;;;5039056;28;20052;-74
2022/06/02 11:43:24;;;;;;;4.50;4.10;;;25.40;44.50;;;;;;5038924;28;20056;-74
2022/06/02 11:46:11;;;;;;;5.45;4.15;;;25.00;46.90;;;;;;5028114;28;20060;-75
2022/06/02 11:49:17;;;;;;;4.57;3.90;;;25.40;45.90;;;;;;5037914;28;20022;-74
2022/06/02 11:52:04;;;;;;;7.55;4.38;;;25.20;46.40;;;;;;5024175;28;20567;-75
2022/06/02 11:54:54;;;;;;;6.03;3.97;;;25.60;48.40;;;;;;5039964;28;20032;-74
2022/06/02 11:57:44;;;;;;;4.95;4.47;;;26.80;44.20;;;;;;5033286;28;20040;-74
2022/06/02 12:00:32;;;;;;;4.35;3.95;;;27.20;41.60;;;;;;5035959;28;20049;-75
2022/06/02 12:03:16;;;;;;;8.95;4.05;;;27.40;41.40;;;;;;5053845;28;20050;-75
2022/06/02 12:06:19;;;;;;;6.10;4.45;;;26.80;44.50;;;;;;5027979;28;20081;-76
2022/06/02 12:09:21;;;;;;;7.20;4.53;;;28.90;41.80;;;;;;5026905;28;20113;-79
2022/06/02 12:12:14;;;;;;;4.20;3.58;;;28.10;42.20;;;;;;5030779;28;20041;-75
2022/06/02 12:14:51;;;;;;;7.80;4.10;;;28.80;40.30;;;;;;5031193;28;20264;-73
2022/06/02 12:17:35;;;;;;;5.10;4.15;;;28.60;40.70;;;;;;5027083;28;20075;-75
2022/06/02 12:20:09;;;;;;;6.63;4.22;;;27.90;38.70;;;;;;5031324;28;20034;-75
2022/06/02 12:22:35;;;;;;;6.43;4.38;;;27.20;41.00;;;;;;5028274;28;20113;-76
2022/06/02 12:25:28;;;;;;;6.32;4.15;;;27.90;40.40;;;;;;5043528;28;20571;-76
2022/06/02 12:28:12;;;;;;;5.20;4.47;;;28.50;39.90;;;;;;5040214;28;20063;-76
2022/06/02 12:31:15;;;;;;;7.40;4.82;;;29.60;36.20;;;;;;5044150;28;20038;-74
2022/06/02 12:34:03;;;;;;;5.18;4.35;;;28.20;38.90;;;;;;5039297;28;20052;-74
2022/06/02 12:36:46;;;;;;;7.20;4.50;;;27.20;40.30;;;;;;5030064;28;20025;-75
2022/06/02 12:39:30;;;;;;;5.47;4.13;;;26.80;42.40;;;;;;5033908;28;20029;-74
2022/06/02 12:42:15;;;;;;;5.03;4.38;;;26.50;42.00;;;;;;5027080;28;20404;-75
2022/06/02 12:44:56;;;;;;;5.05;4.43;;;25.70;44.90;;;;;;5032025;28;20036;-74
2022/06/02 12:47:40;;;;;;;4.60;4.20;;;25.30;44.80;;;;;;5027273;28;20025;-75
2022/06/02 12:50:11;;;;;;;4.47;4.07;;;25.10;47.10;;;;;;5029674;28;20033;-75
2022/06/02 12:52:52;;;;;;;5.22;4.30;;;25.00;45.40;;;;;;5030728;28;20485;-74
2022/06/02 12:55:39;;;;;;;5.20;4.13;;;24.70;46.00;;;;;;5039096;28;20029;-75
2022/06/02 12:58:25;;;;;;;4.85;3.78;;;24.40;46.70;;;;;;5037606;28;20060;-74
2022/06/02 13:01:09;;;;;;;7.75;4.40;;;24.20;48.20;;;;;;5022239;28;20754;-75
2022/06/02 13:04:05;;;;;;;8.00;4.57;;;24.00;49.70;;;;;;5037987;28;20033;-74
2022/06/02 13:07:09;;;;;;;6.30;4.20;;;24.20;48.90;;;;;;5031709;28;20113;-74
2022/06/02 13:09:44;;;;;;;5.43;4.22;;;24.60;48.40;;;;;;5035380;28;20028;-75
2022/06/02 13:12:46;;;;;;;5.45;4.10;;;25.40;49.90;;;;;;5030585;28;20033;-73
2022/06/02 13:15:36;;;;;;;4.40;4.00;;;27.60;43.40;;;;;;5028133;28;20029;-73
2022/06/02 13:18:13;;;;;;;5.38;3.88;;;28.10;41.60;;;;;;5025154;28;20030;-74
2022/06/02 13:21:20;;;;;;;6.20;4.68;;;28.20;39.10;;;;;;5023184;28;20037;-74
2022/06/02 13:24:27;;;;;;;4.32;3.65;;;29.30;38.70;;;;;;5039713;28;20128;-74
2022/06/02 13:27:30;;;;;;;5.60;4.43;;;30.10;39.70;;;;;;5042098;28;20055;-75
2022/06/02 13:30:33;;;;;;;5.90;4.15;;;31.60;35.70;;;;;;5035831;28;20025;-74
2022/06/02 13:33:23;;;;;;;4.63;3.53;;;30.40;37.50;;;;;;5031144;28;20044;-75
2022/06/02 13:36:05;;;;;;;28.10;10.25;;;31.50;36.70;;;;;;5031984;28;20412;-75
2022/06/02 13:39:08;;;;;;;6.53;4.30;;;31.00;35.70;;;;;;5032318;28;20035;-75
2022/06/02 13:41:37;;;;;;;4.97;4.30;;;29.10;39.70;;;;;;5029907;28;20033;-75
2022/06/02 13:44:37;;;;;;;6.63;3.90;;;27.80;39.20;;;;;;5035179;28;20053;-74
2022/06/02 13:47:33;;;;;;;5.30;3.97;;;27.00;42.90;;;;;;5032200;28;20045;-77
2022/06/02 13:50:29;;;;;;;7.68;4.28;;;25.70;44.30;;;;;;5016372;28;20057;-77
2022/06/02 13:53:06;;;;;;;8.07;4.38;;;24.70;45.60;;;;;;5040620;28;20036;-77
2022/06/02 13:59:09;;;;;;;4.57;4.03;;;23.80;49.80;;;;;;5042254;28;20428;-77
2022/06/02 14:01:55;;;;;;;4.55;4.07;;;23.20;50.80;;;;;;5042707;28;20153;-77
2022/06/02 14:04:50;;;;;;;9.15;3.90;;;23.10;55.60;;;;;;5036726;28;20444;-76
2022/06/02 14:07:31;;;;;;;6.10;4.28;;;23.90;51.40;;;;;;5035184;28;20046;-77
2022/06/02 14:10:00;;;;;;;5.57;4.40;;;23.70;53.80;;;;;;5040432;28;20374;-77
2022/06/02 14:12:56;;;;;;;5.68;3.90;;;23.60;55.10;;;;;;5035105;28;20067;-80
2022/06/02 14:15:43;;;;;;;6.03;3.92;;;23.90;51.20;;;;;;5034863;28;20488;-77
2022/06/02 14:18:23;;;;;;;4.38;3.80;;;23.50;54.50;;;;;;5031171;28;20133;-76
2022/06/02 14:20:58;;;;;;;4.85;4.35;;;23.20;54.10;;;;;;5032477;28;20025;-78
2022/06/02 14:23:29;;;;;;;7.38;4.07;;;22.50;57.10;;;;;;5032900;28;20029;-78
2022/06/02 14:26:02;;;;;;;5.30;4.32;;;22.10;57.80;;;;;;5034416;28;20326;-81
2022/06/02 14:29:06;;;;;;;6.82;4.65;;;21.80;60.70;;;;;;5037280;28;20518;-81
2022/06/02 14:32:04;;;;;;;6.85;5.10;;;21.30;64.30;;;;;;5039330;28;20029;-83